Plymouth, California
Current Conditions -  °F | °C
As of 4:15 AM on Monday 20 Oct 2014 (Local Time) from KPVF Reporting Station
Overcast Overcast  
Wind Chill: 54°   Ceiling: 4200
Heat Index: 54°   Visibility: 10mi
Dew Point: 45°   Wind: 0mph
Humidity: 72%   Direction: NA
Pressure: 29.96"   Gusts: NA
Location:  38.48°N, 120.84°W
Report Text: KPVF 201115Z AUTO 00000KT 10SM FEW035 OVC042 12/07 A2996 RMK AO1
Loading
Personal Weather Stations






























Interactive Weather Map
Tropical Storm Tracking
New forecast layout! Learn more

10-Day Weather Forecast

Advertisements
Track Severe Weather on mobile